createdAt,value
2022-12-29T00:00:18.874Z,0.30
2022-12-29T00:02:45.746Z,1.73
2022-12-29T00:05:12.682Z,0.35
2022-12-29T00:07:39.571Z,0.57
2022-12-29T00:10:06.934Z,0.40
2022-12-29T00:12:53.597Z,0.77
2022-12-29T00:15:38.734Z,0.95
2022-12-29T00:18:06.095Z,1.05
2022-12-29T00:21:16.661Z,0.40
2022-12-29T00:24:03.121Z,0.30
2022-12-29T00:26:48.722Z,1.05
2022-12-29T00:29:33.901Z,0.30
2022-12-29T00:32:19.923Z,1.27
2022-12-29T00:35:05.462Z,1.02
2022-12-29T00:38:01.448Z,0.17
2022-12-29T00:40:46.964Z,1.10
2022-12-29T00:43:32.583Z,0.30
2022-12-29T00:45:59.437Z,0.30
2022-12-29T00:48:44.887Z,0.25
2022-12-29T00:51:11.801Z,0.52
2022-12-29T00:53:38.579Z,0.20
2022-12-29T00:56:05.618Z,0.40
2022-12-29T00:58:32.471Z,0.77
2022-12-29T01:01:07.065Z,0.30
2022-12-29T01:03:35.048Z,0.30
2022-12-29T01:06:03.660Z,0.43
2022-12-29T01:08:30.907Z,0.20
2022-12-29T01:11:09.832Z,0.20
2022-12-29T01:13:39.182Z,0.28
2022-12-29T01:16:07.895Z,0.38
2022-12-29T01:18:34.870Z,1.05
2022-12-29T01:21:03.625Z,0.30
2022-12-29T01:23:30.827Z,0.70
2022-12-29T01:25:58.008Z,0.38
2022-12-29T01:28:26.343Z,0.22
2022-12-29T01:30:53.289Z,1.77
2022-12-29T01:33:20.144Z,2.03
2022-12-29T01:35:46.998Z,2.20
2022-12-29T01:38:13.785Z,0.50
2022-12-29T01:40:47.689Z,0.55
2022-12-29T01:43:17.746Z,0.32
2022-12-29T01:45:51.534Z,0.47
2022-12-29T01:48:20.506Z,0.40
2022-12-29T01:50:54.643Z,1.88
2022-12-29T01:53:29.241Z,0.43
2022-12-29T01:56:00.241Z,1.17
2022-12-29T01:58:31.988Z,0.57
2022-12-29T02:00:58.892Z,1.33
2022-12-29T02:03:27.856Z,1.75
2022-12-29T02:06:13.992Z,0.82
2022-12-29T02:08:42.489Z,1.33
2022-12-29T02:11:09.244Z,1.20
2022-12-29T02:13:36.041Z,1.52
2022-12-29T02:16:23.010Z,1.67
2022-12-29T02:19:09.256Z,0.35
2022-12-29T02:22:20.435Z,1.05
2022-12-29T02:25:05.975Z,1.52
2022-12-29T02:28:17.261Z,0.30
2022-12-29T02:31:06.116Z,1.45
2022-12-29T02:33:52.436Z,0.70
2022-12-29T02:36:42.317Z,0.50
2022-12-29T02:39:24.173Z,0.77
2022-12-29T02:42:23.763Z,1.50
2022-12-29T02:45:28.510Z,2.03
2022-12-29T02:48:26.421Z,0.50
2022-12-29T02:51:03.641Z,2.85
2022-12-29T02:53:51.775Z,0.93
2022-12-29T02:56:19.020Z,1.20
2022-12-29T02:58:45.959Z,0.77
2022-12-29T03:01:24.391Z,1.65
2022-12-29T03:04:10.891Z,0.68
2022-12-29T03:06:52.846Z,1.08
2022-12-29T03:09:48.790Z,0.85
2022-12-29T03:13:07.577Z,0.85
2022-12-29T03:16:03.243Z,1.17
2022-12-29T03:18:43.139Z,0.70
2022-12-29T03:22:07.291Z,0.73
2022-12-29T03:24:39.570Z,0.45
2022-12-29T03:27:10.287Z,0.50
2022-12-29T03:29:43.849Z,0.60
2022-12-29T03:32:13.570Z,6.03
2022-12-29T03:34:40.830Z,1.83
2022-12-29T03:37:18.038Z,0.50
2022-12-29T03:39:45.738Z,1.10
2022-12-29T03:42:20.807Z,0.70
2022-12-29T03:44:48.541Z,1.33
2022-12-29T03:47:16.327Z,1.27
2022-12-29T03:49:44.020Z,0.50
2022-12-29T03:52:10.772Z,1.45
2022-12-29T03:54:37.566Z,1.33
2022-12-29T03:57:04.356Z,2.38
2022-12-29T03:59:31.122Z,1.17
2022-12-29T04:01:57.957Z,1.08
2022-12-29T04:04:24.869Z,0.65
2022-12-29T04:06:51.647Z,1.88
2022-12-29T04:09:18.416Z,2.22
2022-12-29T04:11:45.334Z,1.15
2022-12-29T04:14:12.096Z,1.60
2022-12-29T04:16:39.864Z,1.33
2022-12-29T04:19:08.431Z,0.40
2022-12-29T04:21:35.623Z,1.02
2022-12-29T04:24:02.393Z,1.40
2022-12-29T04:26:29.162Z,0.40
2022-12-29T04:28:55.909Z,0.68
2022-12-29T04:31:22.740Z,1.38
2022-12-29T04:33:49.537Z,0.45
2022-12-29T04:36:16.515Z,0.60
2022-12-29T04:38:45.532Z,2.28
2022-12-29T04:41:12.339Z,2.58
2022-12-29T04:43:39.133Z,1.20
2022-12-29T04:46:06.771Z,0.43
2022-12-29T04:48:34.211Z,0.82
2022-12-29T04:51:01.640Z,0.68
2022-12-29T04:53:28.395Z,2.00
2022-12-29T04:55:55.219Z,1.95
2022-12-29T04:58:23.140Z,0.73
2022-12-29T05:00:51.919Z,2.33
2022-12-29T05:03:19.086Z,2.75
2022-12-29T05:05:46.008Z,1.58
2022-12-29T05:08:12.759Z,0.38
2022-12-29T05:10:40.620Z,0.73
2022-12-29T05:13:07.338Z,0.60
2022-12-29T05:15:34.311Z,0.77
2022-12-29T05:18:01.124Z,1.75
2022-12-29T05:20:27.955Z,0.85
2022-12-29T05:22:54.755Z,1.33
2022-12-29T05:25:21.590Z,0.60
2022-12-29T05:27:48.318Z,1.23
2022-12-29T05:30:15.157Z,0.80
2022-12-29T05:32:41.924Z,1.20
2022-12-29T05:35:09.278Z,1.67
2022-12-29T05:37:36.070Z,0.77
2022-12-29T05:40:02.858Z,0.95
2022-12-29T05:42:29.699Z,3.95
2022-12-29T05:44:56.474Z,2.30
2022-12-29T05:47:23.226Z,1.25
2022-12-29T05:49:50.110Z,1.80
2022-12-29T05:52:16.826Z,0.73
2022-12-29T05:54:44.089Z,4.13
2022-12-29T05:57:10.970Z,1.58
2022-12-29T05:59:37.722Z,0.82
2022-12-29T06:02:04.776Z,1.13
2022-12-29T06:04:31.684Z,1.38
2022-12-29T06:06:58.383Z,2.00
2022-12-29T06:09:25.218Z,2.50
2022-12-29T06:11:52.083Z,0.70
2022-12-29T06:14:18.827Z,1.48
2022-12-29T06:16:45.701Z,2.40
2022-12-29T06:19:12.523Z,3.70
2022-12-29T06:21:39.360Z,5.18
2022-12-29T06:24:06.752Z,6.75
2022-12-29T06:26:33.576Z,5.30
2022-12-29T06:29:00.471Z,2.70
2022-12-29T06:31:27.299Z,3.28
2022-12-29T06:33:54.134Z,4.68
2022-12-29T06:36:20.921Z,2.08
2022-12-29T06:38:47.695Z,7.22
2022-12-29T06:41:14.451Z,3.13
2022-12-29T06:43:41.414Z,4.90
2022-12-29T06:46:08.253Z,2.25
2022-12-29T06:48:35.072Z,2.80
2022-12-29T06:51:01.939Z,1.63
2022-12-29T06:53:28.832Z,0.88
2022-12-29T06:55:57.532Z,0.65
2022-12-29T06:58:24.754Z,1.48
2022-12-29T07:00:51.579Z,1.60
2022-12-29T07:03:18.420Z,0.25
2022-12-29T07:05:45.291Z,1.75
2022-12-29T07:08:12.185Z,0.70
2022-12-29T07:10:38.995Z,3.13
2022-12-29T07:13:05.757Z,1.95
2022-12-29T07:15:32.528Z,1.17
2022-12-29T07:17:59.382Z,0.60
2022-12-29T07:20:27.254Z,0.90
2022-12-29T07:22:54.422Z,3.40
2022-12-29T07:25:21.303Z,0.35
2022-12-29T07:27:48.368Z,0.88
2022-12-29T07:30:15.322Z,1.75
2022-12-29T07:32:42.404Z,2.15
2022-12-29T07:35:09.341Z,1.30
2022-12-29T07:37:36.114Z,0.60
2022-12-29T07:40:04.425Z,1.20
2022-12-29T07:42:32.165Z,3.08
2022-12-29T07:44:58.924Z,2.60
2022-12-29T07:47:26.475Z,5.88
2022-12-29T07:49:53.197Z,2.03
2022-12-29T07:52:20.024Z,1.52
2022-12-29T07:54:46.899Z,1.50
2022-12-29T07:57:13.952Z,1.55
2022-12-29T07:59:40.661Z,1.92
2022-12-29T08:02:07.501Z,3.40
2022-12-29T08:04:34.355Z,2.20
2022-12-29T08:07:01.152Z,2.70
2022-12-29T08:09:27.922Z,2.92
2022-12-29T08:11:55.224Z,1.75
2022-12-29T08:14:22.157Z,1.58
2022-12-29T08:16:49.045Z,1.27
2022-12-29T08:19:15.815Z,2.25
2022-12-29T08:21:42.655Z,3.67
2022-12-29T08:24:09.932Z,5.85
2022-12-29T08:26:36.789Z,3.60
2022-12-29T08:29:03.611Z,5.47
2022-12-29T08:31:30.535Z,6.10
2022-12-29T08:33:57.415Z,3.22
2022-12-29T08:36:24.235Z,1.73
2022-12-29T08:38:51.050Z,3.17
2022-12-29T08:41:17.807Z,3.20
2022-12-29T08:43:50.454Z,2.53
2022-12-29T08:46:18.016Z,3.42
2022-12-29T08:48:44.990Z,2.00
2022-12-29T08:51:12.103Z,4.13
2022-12-29T08:53:39.094Z,4.47
2022-12-29T08:56:06.416Z,3.47
2022-12-29T08:58:33.788Z,2.08
2022-12-29T09:01:00.806Z,4.25
2022-12-29T09:06:16.257Z,7.68
2022-12-29T09:08:43.280Z,6.18
2022-12-29T09:11:12.264Z,6.05
2022-12-29T09:13:39.632Z,4.07
2022-12-29T09:16:06.806Z,4.72
2022-12-29T09:18:34.228Z,7.93
2022-12-29T09:21:03.481Z,3.35
2022-12-29T09:23:30.833Z,5.55
2022-12-29T09:25:57.782Z,3.83
2022-12-29T09:28:24.577Z,5.13
2022-12-29T09:30:51.889Z,11.75
2022-12-29T09:33:19.503Z,5.47
2022-12-29T09:35:51.487Z,7.13
2022-12-29T09:38:18.236Z,5.93
2022-12-29T09:40:50.341Z,4.43
2022-12-29T09:43:35.627Z,3.50
2022-12-29T09:46:20.972Z,6.75
2022-12-29T09:49:02.051Z,7.18
2022-12-29T09:51:29.392Z,5.10
2022-12-29T09:54:19.051Z,3.22
2022-12-29T09:56:46.857Z,6.85
2022-12-29T09:59:20.269Z,6.32
2022-12-29T10:01:57.783Z,5.15
2022-12-29T10:04:28.540Z,6.53
2022-12-29T10:07:34.189Z,6.80
2022-12-29T10:10:16.031Z,8.25
2022-12-29T10:12:54.623Z,9.13
2022-12-29T10:15:39.201Z,6.55
2022-12-29T10:18:49.739Z,6.47
2022-12-29T10:21:31.548Z,6.18
2022-12-29T10:24:03.415Z,6.13
2022-12-29T10:26:34.883Z,4.82
2022-12-29T10:29:19.227Z,5.15
2022-12-29T10:31:58.292Z,6.38
2022-12-29T10:34:24.995Z,3.97
2022-12-29T10:37:01.299Z,6.78
2022-12-29T10:39:41.797Z,7.82
2022-12-29T10:42:20.203Z,7.80
2022-12-29T10:44:47.006Z,2.75
2022-12-29T10:47:19.341Z,4.93
2022-12-29T10:49:48.553Z,6.07
2022-12-29T10:52:18.181Z,3.67
2022-12-29T10:55:06.652Z,5.68
2022-12-29T10:57:47.941Z,2.80
2022-12-29T11:00:18.986Z,5.93
2022-12-29T11:03:18.664Z,6.05
2022-12-29T11:06:04.172Z,5.13
2022-12-29T11:08:40.354Z,9.07
2022-12-29T11:11:09.569Z,7.97
2022-12-29T11:13:51.217Z,3.47
2022-12-29T11:16:33.906Z,8.25
2022-12-29T11:19:02.022Z,4.57
2022-12-29T11:21:35.646Z,7.38
2022-12-29T11:24:05.893Z,9.32
2022-12-29T11:26:34.659Z,6.97
2022-12-29T11:29:26.311Z,9.45
2022-12-29T11:32:00.515Z,6.15
2022-12-29T11:34:35.601Z,6.40
2022-12-29T11:37:15.377Z,5.82
2022-12-29T11:39:48.093Z,6.25
2022-12-29T11:42:35.898Z,9.52
2022-12-29T11:45:18.094Z,5.55
2022-12-29T11:48:00.843Z,7.10
2022-12-29T11:50:32.758Z,9.07
2022-12-29T11:53:44.650Z,10.45
2022-12-29T11:56:17.867Z,8.25
2022-12-29T11:58:45.095Z,5.53
2022-12-29T12:01:36.875Z,8.48
2022-12-29T12:04:27.135Z,5.97
2022-12-29T12:07:09.080Z,8.65
2022-12-29T12:09:44.748Z,4.43
2022-12-29T12:12:25.677Z,3.75
2022-12-29T12:15:00.463Z,9.18
2022-12-29T12:17:58.142Z,11.82
2022-12-29T12:20:52.885Z,5.88
2022-12-29T12:23:57.869Z,9.10
2022-12-29T12:26:43.630Z,6.55
2022-12-29T12:29:24.025Z,9.32
2022-12-29T12:31:58.771Z,6.32
2022-12-29T12:34:36.574Z,7.53
2022-12-29T12:37:15.042Z,7.43
2022-12-29T12:40:12.470Z,5.25
2022-12-29T12:43:17.791Z,7.47
2022-12-29T12:46:00.208Z,7.82
2022-12-29T12:48:47.473Z,11.57
2022-12-29T12:51:29.018Z,7.97
2022-12-29T12:54:01.314Z,5.95
2022-12-29T12:56:43.164Z,12.55
2022-12-29T12:59:45.125Z,10.85
2022-12-29T13:02:51.241Z,4.65
2022-12-29T13:05:43.758Z,10.02
2022-12-29T13:08:24.850Z,6.53
2022-12-29T13:11:00.200Z,5.07
2022-12-29T13:14:05.781Z,4.75
2022-12-29T13:16:50.124Z,9.73
2022-12-29T13:19:31.630Z,8.27
2022-12-29T13:22:33.788Z,7.80
2022-12-29T13:25:28.442Z,8.10
2022-12-29T13:28:06.096Z,7.75
2022-12-29T13:30:58.801Z,6.15
2022-12-29T13:33:42.228Z,8.48
2022-12-29T13:36:34.921Z,9.60
2022-12-29T13:39:10.496Z,7.15
2022-12-29T13:41:44.185Z,9.43
2022-12-29T13:44:18.879Z,7.38
2022-12-29T13:46:47.758Z,6.05
2022-12-29T13:49:25.388Z,8.18
2022-12-29T13:51:53.654Z,6.13
2022-12-29T13:54:26.235Z,6.57
2022-12-29T13:57:08.059Z,7.15
2022-12-29T13:59:55.826Z,6.30
2022-12-29T14:02:46.811Z,6.75
2022-12-29T14:05:22.667Z,8.20
2022-12-29T14:08:04.044Z,8.07
2022-12-29T14:10:38.867Z,7.65
2022-12-29T14:13:19.293Z,6.18
2022-12-29T14:15:52.927Z,8.52
2022-12-29T14:18:27.899Z,8.63
2022-12-29T14:21:02.707Z,5.50
2022-12-29T14:23:35.505Z,7.18
2022-12-29T14:26:13.189Z,7.47
2022-12-29T14:28:44.360Z,10.38
2022-12-29T14:31:20.479Z,8.27
2022-12-29T14:34:12.378Z,9.02
2022-12-29T14:37:04.149Z,9.02
2022-12-29T14:39:33.351Z,6.90
2022-12-29T14:42:07.574Z,5.15
2022-12-29T14:44:35.328Z,6.20
2022-12-29T14:47:09.316Z,5.03
2022-12-29T14:49:45.370Z,5.10
2022-12-29T14:52:24.831Z,9.48
2022-12-29T14:54:53.582Z,5.57
2022-12-29T14:57:28.402Z,10.02
2022-12-29T15:00:07.764Z,7.82
2022-12-29T15:02:41.488Z,6.75
2022-12-29T15:05:27.236Z,16.30
2022-12-29T15:07:55.559Z,7.93
2022-12-29T15:10:24.541Z,8.23
2022-12-29T15:12:54.956Z,9.32
2022-12-29T15:15:28.169Z,7.45
2022-12-29T15:17:55.343Z,15.13
2022-12-29T15:20:31.352Z,12.70
2022-12-29T15:23:10.172Z,10.98
2022-12-29T15:25:37.398Z,10.05
2022-12-29T15:28:07.199Z,11.02
2022-12-29T15:30:34.116Z,12.63
2022-12-29T15:33:00.992Z,15.85
2022-12-29T15:35:30.814Z,8.82
2022-12-29T15:37:58.310Z,11.00
2022-12-29T15:40:33.548Z,9.18
2022-12-29T15:43:18.399Z,9.93
2022-12-29T15:45:45.341Z,12.15
2022-12-29T15:48:20.540Z,9.63
2022-12-29T15:50:48.035Z,8.13
2022-12-29T15:53:33.133Z,11.18
2022-12-29T15:56:11.213Z,4.47
2022-12-29T15:58:49.821Z,8.13
2022-12-29T16:01:33.055Z,7.97
2022-12-29T16:04:02.250Z,7.78
2022-12-29T16:06:35.369Z,13.07
2022-12-29T16:09:05.923Z,14.70
2022-12-29T16:11:41.610Z,12.98
2022-12-29T16:14:17.411Z,11.80
2022-12-29T16:16:46.172Z,10.20
2022-12-29T16:19:29.988Z,16.08
2022-12-29T16:21:59.894Z,15.80
2022-12-29T16:24:31.068Z,9.73
2022-12-29T16:27:08.081Z,11.73
2022-12-29T16:29:35.847Z,14.32
2022-12-29T16:32:06.250Z,13.63
2022-12-29T16:34:40.031Z,13.13
2022-12-29T16:37:31.603Z,12.70
2022-12-29T16:40:29.298Z,9.55
2022-12-29T16:43:01.528Z,9.90
2022-12-29T16:45:46.851Z,13.68
2022-12-29T16:48:21.124Z,9.75
2022-12-29T16:50:49.641Z,10.68
2022-12-29T16:53:38.754Z,8.32
2022-12-29T16:56:25.147Z,14.60
2022-12-29T16:59:04.303Z,12.10
2022-12-29T17:01:31.993Z,12.32
2022-12-29T17:04:06.193Z,8.65
2022-12-29T17:06:33.371Z,10.80
2022-12-29T17:09:00.233Z,10.32
2022-12-29T17:11:59.387Z,13.32
2022-12-29T17:14:45.049Z,11.85
2022-12-29T17:17:21.856Z,13.15
2022-12-29T17:19:55.442Z,10.68
2022-12-29T17:22:28.655Z,14.30
2022-12-29T17:24:58.135Z,15.77
2022-12-29T17:27:47.202Z,19.77
2022-12-29T17:30:17.211Z,14.65
2022-12-29T17:32:49.231Z,18.48
2022-12-29T17:35:21.123Z,12.13
2022-12-29T17:37:48.721Z,19.73
2022-12-29T17:40:21.816Z,12.73
2022-12-29T17:42:50.418Z,14.65
2022-12-29T17:45:25.836Z,11.55
2022-12-29T17:47:52.831Z,15.93
2022-12-29T17:50:22.069Z,18.67
2022-12-29T17:53:00.774Z,11.55
2022-12-29T17:55:34.720Z,11.40
2022-12-29T17:58:19.771Z,16.00
2022-12-29T18:00:48.658Z,15.20
2022-12-29T18:03:23.140Z,11.38
2022-12-29T18:05:50.395Z,11.93
2022-12-29T18:08:17.168Z,16.05
2022-12-29T18:10:44.081Z,16.73
2022-12-29T18:13:19.406Z,16.55
2022-12-29T18:15:47.142Z,21.23
2022-12-29T18:18:22.943Z,17.00
2022-12-29T18:20:52.273Z,18.85
2022-12-29T18:23:20.997Z,19.23
2022-12-29T18:25:55.039Z,13.45
2022-12-29T18:28:21.836Z,17.27
2022-12-29T18:30:56.996Z,16.52
2022-12-29T18:33:26.648Z,15.45
2022-12-29T18:36:02.254Z,15.45
2022-12-29T18:38:29.883Z,18.27
2022-12-29T18:40:57.391Z,22.17
2022-12-29T18:43:24.471Z,18.08
2022-12-29T18:45:51.384Z,17.30
2022-12-29T18:48:20.465Z,16.85
2022-12-29T18:50:49.883Z,13.85
2022-12-29T18:53:24.632Z,15.95
2022-12-29T18:55:52.950Z,14.35
2022-12-29T18:58:19.896Z,14.52
2022-12-29T19:00:47.567Z,16.98
2022-12-29T19:03:18.023Z,17.83
2022-12-29T19:05:46.981Z,16.63
2022-12-29T19:08:14.430Z,18.83
2022-12-29T19:10:42.428Z,19.02
2022-12-29T19:13:19.455Z,12.63
2022-12-29T19:15:47.998Z,20.45
2022-12-29T19:21:07.117Z,10.75
2022-12-29T19:23:34.001Z,18.92
2022-12-29T19:26:00.762Z,17.98
2022-12-29T19:28:29.331Z,18.95
2022-12-29T19:31:01.879Z,15.32
2022-12-29T19:33:29.589Z,14.85
2022-12-29T19:36:01.881Z,17.92
2022-12-29T19:38:29.049Z,9.70
2022-12-29T19:40:56.370Z,19.52
2022-12-29T19:43:23.152Z,16.48
2022-12-29T19:45:51.483Z,17.67
2022-12-29T19:48:20.414Z,17.27
2022-12-29T19:50:47.966Z,18.70
2022-12-29T19:53:15.335Z,14.80
2022-12-29T19:55:46.697Z,15.20
2022-12-29T19:58:14.536Z,17.52
2022-12-29T20:00:43.014Z,17.85
2022-12-29T20:03:10.287Z,15.05
2022-12-29T20:05:37.860Z,20.60
2022-12-29T20:08:04.872Z,20.13
2022-12-29T20:10:31.687Z,17.00
2022-12-29T20:12:58.513Z,18.88
2022-12-29T20:15:25.378Z,20.27
2022-12-29T20:20:38.896Z,15.48
2022-12-29T20:23:05.726Z,12.57
2022-12-29T20:25:48.602Z,14.02
2022-12-29T20:28:15.993Z,4.93
2022-12-29T20:30:43.141Z,16.90
2022-12-29T20:33:10.031Z,12.38
2022-12-29T20:35:37.422Z,7.28
2022-12-29T20:38:05.443Z,14.30
2022-12-29T20:40:32.606Z,10.60
2022-12-29T20:42:59.443Z,11.73
2022-12-29T20:45:26.544Z,12.20
2022-12-29T20:47:53.567Z,12.45
2022-12-29T20:50:20.429Z,12.20
2022-12-29T20:52:47.203Z,9.43
2022-12-29T20:55:14.280Z,12.90
2022-12-29T21:00:30.477Z,12.35
2022-12-29T21:03:01.311Z,11.18
2022-12-29T21:05:28.961Z,13.40
2022-12-29T21:07:56.762Z,17.17
2022-12-29T21:10:23.698Z,17.83
2022-12-29T21:12:50.604Z,7.70
2022-12-29T21:15:17.794Z,11.38
2022-12-29T21:17:45.294Z,13.05
2022-12-29T21:20:30.210Z,13.55
2022-12-29T21:23:01.233Z,13.07
2022-12-29T21:25:39.127Z,11.75
2022-12-29T21:28:08.369Z,12.90
2022-12-29T21:30:35.860Z,13.93
2022-12-29T21:33:02.838Z,9.50
2022-12-29T21:35:30.286Z,11.60
2022-12-29T21:37:57.140Z,12.60
2022-12-29T21:40:24.092Z,16.20
2022-12-29T21:42:51.039Z,11.07
2022-12-29T21:45:26.818Z,15.07
2022-12-29T21:48:12.974Z,13.98
2022-12-29T21:51:02.975Z,16.85
2022-12-29T21:53:38.293Z,23.30
2022-12-29T21:56:11.184Z,15.52
2022-12-29T21:58:58.491Z,12.60
2022-12-29T22:01:45.262Z,13.48
2022-12-29T22:04:35.638Z,26.83
2022-12-29T22:07:25.611Z,20.60
2022-12-29T22:10:11.214Z,13.18
2022-12-29T22:12:56.688Z,24.55
2022-12-29T22:15:24.051Z,17.30
2022-12-29T22:17:52.845Z,19.83
2022-12-29T22:20:22.246Z,14.82
2022-12-29T22:22:49.311Z,16.95
2022-12-29T22:25:16.312Z,21.83
2022-12-29T22:27:43.649Z,13.43
2022-12-29T22:30:11.566Z,21.25
2022-12-29T22:32:38.361Z,11.65
2022-12-29T22:35:08.359Z,19.10
2022-12-29T22:37:36.890Z,13.60
2022-12-29T22:40:05.122Z,18.17
2022-12-29T22:42:32.005Z,16.60
2022-12-29T22:44:58.876Z,16.05
2022-12-29T22:47:25.694Z,14.57
2022-12-29T22:49:52.567Z,16.67
2022-12-29T22:52:19.320Z,14.25
2022-12-29T22:54:46.077Z,19.10
2022-12-29T22:57:12.872Z,16.30
2022-12-29T22:59:40.056Z,17.13
2022-12-29T23:02:06.900Z,11.43
2022-12-29T23:05:02.456Z,21.00
2022-12-29T23:07:21.252Z,16.00
2022-12-29T23:09:48.084Z,20.52
2022-12-29T23:12:14.937Z,18.42
2022-12-29T23:14:41.707Z,14.20
2022-12-29T23:17:08.570Z,15.90
2022-12-29T23:19:35.413Z,18.02
2022-12-29T23:22:02.325Z,12.65
2022-12-29T23:24:29.083Z,19.98
2022-12-29T23:26:55.924Z,17.42
2022-12-29T23:29:22.890Z,17.65
2022-12-29T23:31:49.798Z,16.50
2022-12-29T23:34:17.469Z,16.63
2022-12-29T23:36:44.314Z,18.50
2022-12-29T23:39:25.938Z,16.00
2022-12-29T23:41:53.182Z,16.10
2022-12-29T23:44:20.047Z,15.65
2022-12-29T23:46:47.017Z,11.60
2022-12-29T23:49:14.028Z,14.25
2022-12-29T23:51:40.836Z,23.38
2022-12-29T23:54:07.862Z,20.92
2022-12-29T23:56:34.636Z,19.15
2022-12-29T23:59:05.128Z,19.10
